Heerde, Netherlands
Current Conditions -  °F | °C
As of 9:55 AM on Thursday 23 Oct 2014 (Local Time) from EHDL Reporting Station
Haze Haze  
Wind Chill: 50°   Ceiling: 2300
Heat Index: 50°   Visibility: 4mi
Dew Point: 48°   Wind: 8mph
Humidity: 94%   Direction: 210°SSW
Pressure: 30.15"   Gusts: NA
Location:  52.39°N, 6.04°E
Report Text: EHDL 230755Z AUTO 21007KT 7000 BR SCT019 OVC023 10/09 Q1021 WHT
Loading
Personal Weather Stations






























Interactive Weather Map
Tropical Storm Tracking
New forecast layout! Learn more

10-Day Weather Forecast

Advertisements
Track Severe Weather on mobile